sensor_id;sensor_type;location;lat;lon;timestamp;P1;durP1;ratioP1;P2;durP2;ratioP2
6755;SDS011;3415;51.148;7.014;2023-04-01T00:02:02;3.87;;;1.20;;
6755;SDS011;3415;51.148;7.014;2023-04-01T00:04:30;2.03;;;1.07;;
6755;SDS011;3415;51.148;7.014;2023-04-01T00:06:57;4.03;;;0.83;;
6755;SDS011;3415;51.148;7.014;2023-04-01T00:09:25;1.80;;;0.73;;
6755;SDS011;3415;51.148;7.014;2023-04-01T00:11:52;2.33;;;0.90;;
6755;SDS011;3415;51.148;7.014;2023-04-01T00:14:19;4.50;;;0.70;;
6755;SDS011;3415;51.148;7.014;2023-04-01T00:16:45;5.63;;;0.70;;
6755;SDS011;3415;51.148;7.014;2023-04-01T00:19:12;1.20;;;0.60;;
6755;SDS011;3415;51.148;7.014;2023-04-01T00:21:41;1.27;;;0.70;;
6755;SDS011;3415;51.148;7.014;2023-04-01T00:24:08;1.50;;;0.60;;
6755;SDS011;3415;51.148;7.014;2023-04-01T00:26:35;7.73;;;0.80;;
6755;SDS011;3415;51.148;7.014;2023-04-01T00:29:02;1.47;;;0.70;;
6755;SDS011;3415;51.148;7.014;2023-04-01T00:31:29;2.07;;;0.70;;
6755;SDS011;3415;51.148;7.014;2023-04-01T00:33:56;1.23;;;0.70;;
6755;SDS011;3415;51.148;7.014;2023-04-01T00:36:22;1.77;;;0.70;;
6755;SDS011;3415;51.148;7.014;2023-04-01T00:38:50;1.77;;;0.90;;
6755;SDS011;3415;51.148;7.014;2023-04-01T00:41:18;1.10;;;0.60;;
6755;SDS011;3415;51.148;7.014;2023-04-01T00:43:47;1.27;;;0.73;;
6755;SDS011;3415;51.148;7.014;2023-04-01T00:46:15;2.23;;;0.80;;
6755;SDS011;3415;51.148;7.014;2023-04-01T00:48:43;1.30;;;0.70;;
6755;SDS011;3415;51.148;7.014;2023-04-01T00:51:13;1.20;;;0.60;;
6755;SDS011;3415;51.148;7.014;2023-04-01T00:53:43;2.13;;;0.70;;
6755;SDS011;3415;51.148;7.014;2023-04-01T00:56:16;1.80;;;0.63;;
6755;SDS011;3415;51.148;7.014;2023-04-01T00:58:46;2.50;;;0.77;;
6755;SDS011;3415;51.148;7.014;2023-04-01T01:01:17;3.37;;;0.90;;
6755;SDS011;3415;51.148;7.014;2023-04-01T01:03:46;1.70;;;0.90;;
6755;SDS011;3415;51.148;7.014;2023-04-01T01:06:16;1.97;;;0.80;;
6755;SDS011;3415;51.148;7.014;2023-04-01T01:08:56;1.10;;;0.60;;
6755;SDS011;3415;51.148;7.014;2023-04-01T01:11:57;1.30;;;0.73;;
6755;SDS011;3415;51.148;7.014;2023-04-01T01:14:34;1.10;;;0.60;;
6755;SDS011;3415;51.148;7.014;2023-04-01T01:17:12;2.93;;;0.80;;
6755;SDS011;3415;51.148;7.014;2023-04-01T01:19:52;1.10;;;0.60;;
6755;SDS011;3415;51.148;7.014;2023-04-01T01:22:36;1.20;;;0.63;;
6755;SDS011;3415;51.148;7.014;2023-04-01T01:25:21;1.10;;;0.60;;
6755;SDS011;3415;51.148;7.014;2023-04-01T01:28:05;1.43;;;0.73;;
6755;SDS011;3415;51.148;7.014;2023-04-01T01:30:48;1.63;;;0.70;;
6755;SDS011;3415;51.148;7.014;2023-04-01T01:33:37;1.60;;;0.87;;
6755;SDS011;3415;51.148;7.014;2023-04-01T01:36:15;1.20;;;0.70;;
6755;SDS011;3415;51.148;7.014;2023-04-01T01:38:45;1.47;;;0.70;;
6755;SDS011;3415;51.148;7.014;2023-04-01T01:41:14;1.50;;;0.73;;
6755;SDS011;3415;51.148;7.014;2023-04-01T01:43:44;1.33;;;0.60;;
6755;SDS011;3415;51.148;7.014;2023-04-01T01:46:15;3.97;;;0.80;;
6755;SDS011;3415;51.148;7.014;2023-04-01T01:48:47;1.17;;;0.67;;
6755;SDS011;3415;51.148;7.014;2023-04-01T01:51:16;1.20;;;0.70;;
6755;SDS011;3415;51.148;7.014;2023-04-01T01:53:44;1.20;;;0.60;;
6755;SDS011;3415;51.148;7.014;2023-04-01T01:56:10;1.20;;;0.60;;
6755;SDS011;3415;51.148;7.014;2023-04-01T01:58:39;1.80;;;0.80;;
6755;SDS011;3415;51.148;7.014;2023-04-01T02:01:10;1.30;;;0.80;;
6755;SDS011;3415;51.148;7.014;2023-04-01T02:03:39;2.30;;;0.70;;
6755;SDS011;3415;51.148;7.014;2023-04-01T02:06:10;1.33;;;0.77;;
6755;SDS011;3415;51.148;7.014;2023-04-01T02:08:42;1.20;;;0.60;;
6755;SDS011;3415;51.148;7.014;2023-04-01T02:11:13;1.30;;;0.70;;
6755;SDS011;3415;51.148;7.014;2023-04-01T02:13:45;1.10;;;0.60;;
6755;SDS011;3415;51.148;7.014;2023-04-01T02:16:18;1.20;;;0.70;;
6755;SDS011;3415;51.148;7.014;2023-04-01T02:18:50;1.67;;;0.70;;
6755;SDS011;3415;51.148;7.014;2023-04-01T02:21:20;3.63;;;0.70;;
6755;SDS011;3415;51.148;7.014;2023-04-01T02:23:51;1.97;;;0.70;;
6755;SDS011;3415;51.148;7.014;2023-04-01T02:26:20;4.10;;;0.70;;
6755;SDS011;3415;51.148;7.014;2023-04-01T02:28:49;1.40;;;0.80;;
6755;SDS011;3415;51.148;7.014;2023-04-01T02:31:18;1.20;;;0.63;;
6755;SDS011;3415;51.148;7.014;2023-04-01T02:33:45;1.20;;;0.60;;
6755;SDS011;3415;51.148;7.014;2023-04-01T02:36:13;1.90;;;0.60;;
6755;SDS011;3415;51.148;7.014;2023-04-01T02:38:41;2.07;;;0.80;;
6755;SDS011;3415;51.148;7.014;2023-04-01T02:41:12;2.80;;;0.67;;
6755;SDS011;3415;51.148;7.014;2023-04-01T02:43:38;1.10;;;0.50;;
6755;SDS011;3415;51.148;7.014;2023-04-01T02:46:05;1.33;;;0.67;;
6755;SDS011;3415;51.148;7.014;2023-04-01T02:48:32;3.17;;;0.70;;
6755;SDS011;3415;51.148;7.014;2023-04-01T02:51:00;1.10;;;0.53;;
6755;SDS011;3415;51.148;7.014;2023-04-01T02:53:27;2.00;;;0.90;;
6755;SDS011;3415;51.148;7.014;2023-04-01T02:55:54;1.10;;;0.60;;
6755;SDS011;3415;51.148;7.014;2023-04-01T02:58:22;1.60;;;0.67;;
6755;SDS011;3415;51.148;7.014;2023-04-01T03:00:49;1.50;;;1.10;;
6755;SDS011;3415;51.148;7.014;2023-04-01T03:03:16;1.90;;;0.70;;
6755;SDS011;3415;51.148;7.014;2023-04-01T03:05:43;1.37;;;0.60;;
6755;SDS011;3415;51.148;7.014;2023-04-01T03:08:10;1.20;;;0.60;;
6755;SDS011;3415;51.148;7.014;2023-04-01T03:10:37;1.10;;;0.60;;
6755;SDS011;3415;51.148;7.014;2023-04-01T03:13:04;22.13;;;2.80;;
6755;SDS011;3415;51.148;7.014;2023-04-01T03:15:32;1.20;;;0.60;;
6755;SDS011;3415;51.148;7.014;2023-04-01T03:17:59;1.43;;;0.70;;
6755;SDS011;3415;51.148;7.014;2023-04-01T03:20:26;1.50;;;1.00;;
6755;SDS011;3415;51.148;7.014;2023-04-01T03:22:53;1.57;;;0.80;;
6755;SDS011;3415;51.148;7.014;2023-04-01T03:25:19;1.63;;;0.80;;
6755;SDS011;3415;51.148;7.014;2023-04-01T03:27:46;1.40;;;0.77;;
6755;SDS011;3415;51.148;7.014;2023-04-01T03:30:13;3.67;;;0.70;;
6755;SDS011;3415;51.148;7.014;2023-04-01T03:32:41;1.10;;;0.70;;
6755;SDS011;3415;51.148;7.014;2023-04-01T03:35:08;1.30;;;0.60;;
6755;SDS011;3415;51.148;7.014;2023-04-01T03:37:36;4.13;;;0.80;;
6755;SDS011;3415;51.148;7.014;2023-04-01T03:40:03;1.20;;;0.60;;
6755;SDS011;3415;51.148;7.014;2023-04-01T03:42:31;1.27;;;0.63;;
6755;SDS011;3415;51.148;7.014;2023-04-01T03:44:58;1.20;;;0.70;;
6755;SDS011;3415;51.148;7.014;2023-04-01T03:47:25;1.83;;;0.80;;
6755;SDS011;3415;51.148;7.014;2023-04-01T03:49:53;1.77;;;0.70;;
6755;SDS011;3415;51.148;7.014;2023-04-01T03:52:20;1.10;;;0.60;;
6755;SDS011;3415;51.148;7.014;2023-04-01T03:54:47;1.10;;;0.60;;
6755;SDS011;3415;51.148;7.014;2023-04-01T03:57:14;4.60;;;1.00;;
6755;SDS011;3415;51.148;7.014;2023-04-01T03:59:41;3.37;;;0.90;;
6755;SDS011;3415;51.148;7.014;2023-04-01T04:02:07;1.87;;;0.90;;
6755;SDS011;3415;51.148;7.014;2023-04-01T04:04:34;2.23;;;0.70;;
6755;SDS011;3415;51.148;7.014;2023-04-01T04:07:02;1.40;;;0.80;;
6755;SDS011;3415;51.148;7.014;2023-04-01T04:09:29;1.20;;;0.70;;
6755;SDS011;3415;51.148;7.014;2023-04-01T04:11:56;1.50;;;0.70;;
6755;SDS011;3415;51.148;7.014;2023-04-01T04:14:23;1.83;;;0.80;;
6755;SDS011;3415;51.148;7.014;2023-04-01T04:16:50;1.20;;;0.60;;
6755;SDS011;3415;51.148;7.014;2023-04-01T04:19:17;3.57;;;1.10;;
6755;SDS011;3415;51.148;7.014;2023-04-01T04:21:44;2.73;;;0.90;;
6755;SDS011;3415;51.148;7.014;2023-04-01T04:24:12;1.60;;;0.70;;
6755;SDS011;3415;51.148;7.014;2023-04-01T04:26:39;1.20;;;0.80;;
6755;SDS011;3415;51.148;7.014;2023-04-01T04:29:05;1.20;;;0.60;;
6755;SDS011;3415;51.148;7.014;2023-04-01T04:31:32;3.57;;;0.70;;
6755;SDS011;3415;51.148;7.014;2023-04-01T04:33:59;3.60;;;1.13;;
6755;SDS011;3415;51.148;7.014;2023-04-01T04:36:26;1.20;;;0.73;;
6755;SDS011;3415;51.148;7.014;2023-04-01T04:38:53;1.20;;;0.70;;
6755;SDS011;3415;51.148;7.014;2023-04-01T04:41:21;1.30;;;0.83;;
6755;SDS011;3415;51.148;7.014;2023-04-01T04:43:49;3.40;;;0.90;;
6755;SDS011;3415;51.148;7.014;2023-04-01T04:46:17;1.30;;;0.80;;
6755;SDS011;3415;51.148;7.014;2023-04-01T04:48:44;2.50;;;0.90;;
6755;SDS011;3415;51.148;7.014;2023-04-01T04:51:14;2.40;;;0.93;;
6755;SDS011;3415;51.148;7.014;2023-04-01T04:53:42;1.30;;;0.70;;
6755;SDS011;3415;51.148;7.014;2023-04-01T04:56:10;1.57;;;0.80;;
6755;SDS011;3415;51.148;7.014;2023-04-01T04:58:38;1.87;;;0.83;;
6755;SDS011;3415;51.148;7.014;2023-04-01T05:01:06;1.80;;;0.80;;
6755;SDS011;3415;51.148;7.014;2023-04-01T05:03:34;1.57;;;0.87;;
6755;SDS011;3415;51.148;7.014;2023-04-01T05:06:01;1.17;;;0.63;;
6755;SDS011;3415;51.148;7.014;2023-04-01T05:08:28;1.40;;;0.87;;
6755;SDS011;3415;51.148;7.014;2023-04-01T05:10:55;1.50;;;0.80;;
6755;SDS011;3415;51.148;7.014;2023-04-01T05:13:22;1.60;;;1.00;;
6755;SDS011;3415;51.148;7.014;2023-04-01T05:15:50;3.03;;;1.37;;
6755;SDS011;3415;51.148;7.014;2023-04-01T05:18:17;2.43;;;1.00;;
6755;SDS011;3415;51.148;7.014;2023-04-01T05:20:47;1.60;;;1.10;;
6755;SDS011;3415;51.148;7.014;2023-04-01T05:23:14;2.83;;;0.97;;
6755;SDS011;3415;51.148;7.014;2023-04-01T05:25:41;3.73;;;1.40;;
6755;SDS011;3415;51.148;7.014;2023-04-01T05:28:09;2.50;;;1.33;;
6755;SDS011;3415;51.148;7.014;2023-04-01T05:30:36;2.27;;;1.40;;
6755;SDS011;3415;51.148;7.014;2023-04-01T05:33:07;1.90;;;1.40;;
6755;SDS011;3415;51.148;7.014;2023-04-01T05:35:34;3.00;;;1.30;;
6755;SDS011;3415;51.148;7.014;2023-04-01T05:38:01;2.17;;;1.37;;
6755;SDS011;3415;51.148;7.014;2023-04-01T05:40:29;3.00;;;1.63;;
6755;SDS011;3415;51.148;7.014;2023-04-01T05:42:56;2.10;;;1.23;;
6755;SDS011;3415;51.148;7.014;2023-04-01T05:45:22;5.70;;;1.70;;
6755;SDS011;3415;51.148;7.014;2023-04-01T05:47:49;3.40;;;1.73;;
6755;SDS011;3415;51.148;7.014;2023-04-01T05:50:18;5.10;;;1.30;;
6755;SDS011;3415;51.148;7.014;2023-04-01T05:52:45;2.47;;;1.50;;
6755;SDS011;3415;51.148;7.014;2023-04-01T05:55:12;2.33;;;1.30;;
6755;SDS011;3415;51.148;7.014;2023-04-01T05:57:39;2.87;;;1.57;;
6755;SDS011;3415;51.148;7.014;2023-04-01T06:00:06;2.00;;;1.27;;
6755;SDS011;3415;51.148;7.014;2023-04-01T06:02:33;3.53;;;1.47;;
6755;SDS011;3415;51.148;7.014;2023-04-01T06:05:03;2.77;;;1.80;;
6755;SDS011;3415;51.148;7.014;2023-04-01T06:07:38;4.40;;;2.00;;
6755;SDS011;3415;51.148;7.014;2023-04-01T06:10:09;4.23;;;1.90;;
6755;SDS011;3415;51.148;7.014;2023-04-01T06:12:40;5.97;;;2.70;;
6755;SDS011;3415;51.148;7.014;2023-04-01T06:15:30;5.30;;;1.90;;
6755;SDS011;3415;51.148;7.014;2023-04-01T06:18:07;3.47;;;2.10;;
6755;SDS011;3415;51.148;7.014;2023-04-01T06:20:49;4.50;;;1.80;;
6755;SDS011;3415;51.148;7.014;2023-04-01T06:23:26;4.23;;;2.43;;
6755;SDS011;3415;51.148;7.014;2023-04-01T06:26:07;5.80;;;2.00;;
6755;SDS011;3415;51.148;7.014;2023-04-01T06:31:54;3.13;;;1.80;;
6755;SDS011;3415;51.148;7.014;2023-04-01T06:37:47;3.40;;;1.83;;
6755;SDS011;3415;51.148;7.014;2023-04-01T06:40:33;3.73;;;1.57;;
6755;SDS011;3415;51.148;7.014;2023-04-01T06:43:12;3.60;;;2.10;;
6755;SDS011;3415;51.148;7.014;2023-04-01T06:45:47;5.37;;;2.20;;
6755;SDS011;3415;51.148;7.014;2023-04-01T06:48:32;7.90;;;2.40;;
6755;SDS011;3415;51.148;7.014;2023-04-01T06:51:07;1.90;;;1.20;;
6755;SDS011;3415;51.148;7.014;2023-04-01T06:53:43;2.67;;;1.73;;
6755;SDS011;3415;51.148;7.014;2023-04-01T06:56:20;2.70;;;1.67;;
6755;SDS011;3415;51.148;7.014;2023-04-01T06:58:52;4.00;;;2.50;;
6755;SDS011;3415;51.148;7.014;2023-04-01T07:01:20;2.77;;;1.57;;
6755;SDS011;3415;51.148;7.014;2023-04-01T07:03:51;3.00;;;1.90;;
6755;SDS011;3415;51.148;7.014;2023-04-01T07:06:24;2.57;;;1.33;;
6755;SDS011;3415;51.148;7.014;2023-04-01T07:08:55;2.30;;;1.50;;
6755;SDS011;3415;51.148;7.014;2023-04-01T07:11:27;2.13;;;1.30;;
6755;SDS011;3415;51.148;7.014;2023-04-01T07:13:58;2.30;;;1.47;;
6755;SDS011;3415;51.148;7.014;2023-04-01T07:16:29;3.40;;;1.87;;
6755;SDS011;3415;51.148;7.014;2023-04-01T07:18:59;7.00;;;1.30;;
6755;SDS011;3415;51.148;7.014;2023-04-01T07:21:32;2.03;;;1.10;;
6755;SDS011;3415;51.148;7.014;2023-04-01T07:24:04;2.83;;;1.60;;
6755;SDS011;3415;51.148;7.014;2023-04-01T07:26:36;3.30;;;2.30;;
6755;SDS011;3415;51.148;7.014;2023-04-01T07:29:04;5.23;;;1.70;;
6755;SDS011;3415;51.148;7.014;2023-04-01T07:31:40;4.80;;;2.00;;
6755;SDS011;3415;51.148;7.014;2023-04-01T07:34:25;5.43;;;1.77;;
6755;SDS011;3415;51.148;7.014;2023-04-01T07:36:54;2.97;;;1.77;;
6755;SDS011;3415;51.148;7.014;2023-04-01T07:39:30;3.40;;;1.87;;
6755;SDS011;3415;51.148;7.014;2023-04-01T07:42:08;3.03;;;1.80;;
6755;SDS011;3415;51.148;7.014;2023-04-01T07:44:44;11.90;;;2.27;;
6755;SDS011;3415;51.148;7.014;2023-04-01T07:47:29;2.60;;;1.80;;
6755;SDS011;3415;51.148;7.014;2023-04-01T07:50:22;4.00;;;1.83;;
6755;SDS011;3415;51.148;7.014;2023-04-01T07:52:55;2.93;;;1.73;;
6755;SDS011;3415;51.148;7.014;2023-04-01T07:55:32;2.90;;;2.10;;
6755;SDS011;3415;51.148;7.014;2023-04-01T07:58:10;2.93;;;1.67;;
6755;SDS011;3415;51.148;7.014;2023-04-01T08:00:42;3.40;;;1.80;;
6755;SDS011;3415;51.148;7.014;2023-04-01T08:03:17;4.10;;;1.67;;
6755;SDS011;3415;51.148;7.014;2023-04-01T08:05:56;3.60;;;1.60;;
6755;SDS011;3415;51.148;7.014;2023-04-01T08:08:29;6.43;;;3.70;;
6755;SDS011;3415;51.148;7.014;2023-04-01T08:11:09;4.30;;;2.10;;
6755;SDS011;3415;51.148;7.014;2023-04-01T08:13:50;4.80;;;2.07;;
6755;SDS011;3415;51.148;7.014;2023-04-01T08:16:25;5.33;;;1.93;;
6755;SDS011;3415;51.148;7.014;2023-04-01T08:18:59;3.27;;;2.17;;
6755;SDS011;3415;51.148;7.014;2023-04-01T08:21:38;4.80;;;1.67;;
6755;SDS011;3415;51.148;7.014;2023-04-01T08:24:11;2.40;;;1.40;;
6755;SDS011;3415;51.148;7.014;2023-04-01T08:26:44;3.87;;;1.97;;
6755;SDS011;3415;51.148;7.014;2023-04-01T08:29:19;3.20;;;1.97;;
6755;SDS011;3415;51.148;7.014;2023-04-01T08:31:48;3.50;;;1.50;;
6755;SDS011;3415;51.148;7.014;2023-04-01T08:34:23;2.83;;;1.93;;
6755;SDS011;3415;51.148;7.014;2023-04-01T08:36:53;7.83;;;2.27;;
6755;SDS011;3415;51.148;7.014;2023-04-01T08:39:28;3.17;;;2.13;;
6755;SDS011;3415;51.148;7.014;2023-04-01T08:42:03;3.87;;;2.23;;
6755;SDS011;3415;51.148;7.014;2023-04-01T08:48:20;3.10;;;1.73;;
6755;SDS011;3415;51.148;7.014;2023-04-01T08:51:23;2.90;;;1.57;;
6755;SDS011;3415;51.148;7.014;2023-04-01T08:54:19;2.53;;;1.30;;
6755;SDS011;3415;51.148;7.014;2023-04-01T08:57:01;4.80;;;1.83;;
6755;SDS011;3415;51.148;7.014;2023-04-01T08:59:39;2.83;;;1.67;;
6755;SDS011;3415;51.148;7.014;2023-04-01T09:02:25;3.33;;;2.50;;
6755;SDS011;3415;51.148;7.014;2023-04-01T09:05:28;2.67;;;1.40;;
6755;SDS011;3415;51.148;7.014;2023-04-01T09:08:06;6.03;;;1.93;;
6755;SDS011;3415;51.148;7.014;2023-04-01T09:10:53;2.53;;;1.67;;
6755;SDS011;3415;51.148;7.014;2023-04-01T09:16:26;5.00;;;2.40;;
6755;SDS011;3415;51.148;7.014;2023-04-01T09:19:20;4.00;;;2.20;;
6755;SDS011;3415;51.148;7.014;2023-04-01T09:24:46;3.47;;;1.83;;
6755;SDS011;3415;51.148;7.014;2023-04-01T09:27:27;3.93;;;2.47;;
6755;SDS011;3415;51.148;7.014;2023-04-01T09:30:09;4.20;;;2.20;;
6755;SDS011;3415;51.148;7.014;2023-04-01T09:33:04;3.30;;;2.10;;
6755;SDS011;3415;51.148;7.014;2023-04-01T09:35:45;2.83;;;1.70;;
6755;SDS011;3415;51.148;7.014;2023-04-01T09:38:21;3.53;;;2.13;;
6755;SDS011;3415;51.148;7.014;2023-04-01T09:40:54;2.47;;;2.00;;
6755;SDS011;3415;51.148;7.014;2023-04-01T09:43:25;3.20;;;2.40;;
6755;SDS011;3415;51.148;7.014;2023-04-01T09:45:58;2.20;;;1.50;;
6755;SDS011;3415;51.148;7.014;2023-04-01T09:48:39;3.97;;;1.90;;
6755;SDS011;3415;51.148;7.014;2023-04-01T09:51:26;3.07;;;1.83;;
6755;SDS011;3415;51.148;7.014;2023-04-01T09:54:07;4.90;;;3.00;;
6755;SDS011;3415;51.148;7.014;2023-04-01T09:56:52;9.73;;;3.03;;
6755;SDS011;3415;51.148;7.014;2023-04-01T10:09:10;5.27;;;3.30;;
6755;SDS011;3415;51.148;7.014;2023-04-01T10:15:09;6.60;;;3.90;;
6755;SDS011;3415;51.148;7.014;2023-04-01T10:18:11;10.70;;;4.30;;
6755;SDS011;3415;51.148;7.014;2023-04-01T10:21:07;5.53;;;3.63;;
6755;SDS011;3415;51.148;7.014;2023-04-01T10:29:58;6.40;;;4.17;;
6755;SDS011;3415;51.148;7.014;2023-04-01T10:51:21;4.40;;;2.60;;
6755;SDS011;3415;51.148;7.014;2023-04-01T10:57:07;4.80;;;2.43;;
6755;SDS011;3415;51.148;7.014;2023-04-01T10:59:59;4.30;;;2.83;;
6755;SDS011;3415;51.148;7.014;2023-04-01T11:05:59;3.70;;;2.53;;
6755;SDS011;3415;51.148;7.014;2023-04-01T11:08:58;4.77;;;3.13;;
6755;SDS011;3415;51.148;7.014;2023-04-01T11:21:30;5.87;;;3.67;;
6755;SDS011;3415;51.148;7.014;2023-04-01T11:24:16;4.67;;;3.17;;
6755;SDS011;3415;51.148;7.014;2023-04-01T11:26:58;7.63;;;3.60;;
6755;SDS011;3415;51.148;7.014;2023-04-01T11:29:41;5.80;;;3.83;;
6755;SDS011;3415;51.148;7.014;2023-04-01T11:32:29;7.23;;;4.30;;
6755;SDS011;3415;51.148;7.014;2023-04-01T11:35:12;8.90;;;4.77;;
6755;SDS011;3415;51.148;7.014;2023-04-01T11:37:54;9.17;;;4.20;;
6755;SDS011;3415;51.148;7.014;2023-04-01T11:40:29;35.07;;;16.10;;
6755;SDS011;3415;51.148;7.014;2023-04-01T11:43:03;13.63;;;7.73;;
6755;SDS011;3415;51.148;7.014;2023-04-01T11:45:39;12.80;;;6.87;;
6755;SDS011;3415;51.148;7.014;2023-04-01T11:48:14;7.17;;;4.47;;
6755;SDS011;3415;51.148;7.014;2023-04-01T11:50:56;8.93;;;6.17;;
6755;SDS011;3415;51.148;7.014;2023-04-01T11:53:33;8.60;;;4.93;;
6755;SDS011;3415;51.148;7.014;2023-04-01T11:56:12;9.30;;;5.23;;
6755;SDS011;3415;51.148;7.014;2023-04-01T11:58:56;7.60;;;4.13;;
6755;SDS011;3415;51.148;7.014;2023-04-01T12:01:36;9.07;;;5.53;;
6755;SDS011;3415;51.148;7.014;2023-04-01T12:04:33;7.60;;;4.27;;
6755;SDS011;3415;51.148;7.014;2023-04-01T12:07:22;7.13;;;4.30;;
6755;SDS011;3415;51.148;7.014;2023-04-01T12:09:58;6.33;;;4.43;;
6755;SDS011;3415;51.148;7.014;2023-04-01T12:12:32;9.27;;;4.83;;
6755;SDS011;3415;51.148;7.014;2023-04-01T12:15:11;7.23;;;4.53;;
6755;SDS011;3415;51.148;7.014;2023-04-01T12:17:47;7.63;;;4.50;;
6755;SDS011;3415;51.148;7.014;2023-04-01T12:20:22;6.60;;;4.50;;
6755;SDS011;3415;51.148;7.014;2023-04-01T12:23:08;9.10;;;4.33;;
6755;SDS011;3415;51.148;7.014;2023-04-01T12:25:53;4.17;;;2.37;;
6755;SDS011;3415;51.148;7.014;2023-04-01T12:28:38;9.50;;;4.20;;
6755;SDS011;3415;51.148;7.014;2023-04-01T12:31:15;7.93;;;3.97;;
6755;SDS011;3415;51.148;7.014;2023-04-01T12:33:53;7.27;;;4.30;;
6755;SDS011;3415;51.148;7.014;2023-04-01T12:36:32;8.10;;;4.97;;
6755;SDS011;3415;51.148;7.014;2023-04-01T12:39:20;8.23;;;4.63;;
6755;SDS011;3415;51.148;7.014;2023-04-01T12:42:02;7.33;;;4.20;;
6755;SDS011;3415;51.148;7.014;2023-04-01T12:44:46;4.60;;;2.50;;
6755;SDS011;3415;51.148;7.014;2023-04-01T12:47:27;8.53;;;4.60;;
6755;SDS011;3415;51.148;7.014;2023-04-01T12:50:23;6.43;;;4.10;;
6755;SDS011;3415;51.148;7.014;2023-04-01T12:53:00;7.57;;;4.97;;
6755;SDS011;3415;51.148;7.014;2023-04-01T12:55:44;6.50;;;4.30;;
6755;SDS011;3415;51.148;7.014;2023-04-01T12:58:21;6.83;;;4.07;;
6755;SDS011;3415;51.148;7.014;2023-04-01T13:01:25;6.57;;;4.40;;
6755;SDS011;3415;51.148;7.014;2023-04-01T13:07:16;7.53;;;4.70;;
6755;SDS011;3415;51.148;7.014;2023-04-01T13:09:59;7.77;;;5.07;;
6755;SDS011;3415;51.148;7.014;2023-04-01T13:12:36;8.20;;;4.73;;
6755;SDS011;3415;51.148;7.014;2023-04-01T13:15:21;8.70;;;4.60;;
6755;SDS011;3415;51.148;7.014;2023-04-01T13:17:53;8.90;;;4.13;;
6755;SDS011;3415;51.148;7.014;2023-04-01T13:20:35;7.40;;;3.93;;
6755;SDS011;3415;51.148;7.014;2023-04-01T13:23:12;5.53;;;3.87;;
6755;SDS011;3415;51.148;7.014;2023-04-01T13:25:51;6.93;;;4.37;;
6755;SDS011;3415;51.148;7.014;2023-04-01T13:28:25;8.07;;;3.80;;
6755;SDS011;3415;51.148;7.014;2023-04-01T13:30:57;6.73;;;3.93;;
6755;SDS011;3415;51.148;7.014;2023-04-01T13:33:30;6.10;;;3.90;;
6755;SDS011;3415;51.148;7.014;2023-04-01T13:36:07;7.20;;;4.60;;
6755;SDS011;3415;51.148;7.014;2023-04-01T13:38:46;6.23;;;4.13;;
6755;SDS011;3415;51.148;7.014;2023-04-01T13:41:29;8.37;;;4.80;;
6755;SDS011;3415;51.148;7.014;2023-04-01T13:44:06;7.17;;;4.17;;
6755;SDS011;3415;51.148;7.014;2023-04-01T13:46:46;7.40;;;4.17;;
6755;SDS011;3415;51.148;7.014;2023-04-01T13:52:35;5.70;;;3.67;;
6755;SDS011;3415;51.148;7.014;2023-04-01T13:55:21;6.90;;;4.70;;
6755;SDS011;3415;51.148;7.014;2023-04-01T14:01:04;5.90;;;4.20;;
6755;SDS011;3415;51.148;7.014;2023-04-01T14:03:43;5.10;;;3.30;;
6755;SDS011;3415;51.148;7.014;2023-04-01T14:06:31;7.47;;;4.30;;
6755;SDS011;3415;51.148;7.014;2023-04-01T14:09:11;6.30;;;4.00;;
6755;SDS011;3415;51.148;7.014;2023-04-01T14:12:13;6.60;;;4.20;;
6755;SDS011;3415;51.148;7.014;2023-04-01T14:14:54;5.87;;;4.00;;
6755;SDS011;3415;51.148;7.014;2023-04-01T14:17:44;7.40;;;4.60;;
6755;SDS011;3415;51.148;7.014;2023-04-01T14:20:27;5.70;;;3.20;;
6755;SDS011;3415;51.148;7.014;2023-04-01T14:23:09;9.53;;;4.20;;
6755;SDS011;3415;51.148;7.014;2023-04-01T14:26:04;6.20;;;3.57;;
6755;SDS011;3415;51.148;7.014;2023-04-01T14:28:49;6.63;;;4.23;;
6755;SDS011;3415;51.148;7.014;2023-04-01T14:31:27;9.03;;;4.40;;
6755;SDS011;3415;51.148;7.014;2023-04-01T14:34:12;7.00;;;4.40;;
6755;SDS011;3415;51.148;7.014;2023-04-01T14:36:59;6.13;;;3.53;;
6755;SDS011;3415;51.148;7.014;2023-04-01T14:39:47;7.47;;;4.10;;
6755;SDS011;3415;51.148;7.014;2023-04-01T14:42:35;10.03;;;4.93;;
6755;SDS011;3415;51.148;7.014;2023-04-01T14:45:34;8.80;;;5.47;;
6755;SDS011;3415;51.148;7.014;2023-04-01T14:48:25;11.10;;;5.43;;
6755;SDS011;3415;51.148;7.014;2023-04-01T14:50:57;7.67;;;4.80;;
6755;SDS011;3415;51.148;7.014;2023-04-01T14:53:36;6.83;;;4.10;;
6755;SDS011;3415;51.148;7.014;2023-04-01T14:56:07;5.67;;;4.03;;
6755;SDS011;3415;51.148;7.014;2023-04-01T14:58:42;8.03;;;4.63;;
6755;SDS011;3415;51.148;7.014;2023-04-01T15:01:20;5.60;;;3.73;;
6755;SDS011;3415;51.148;7.014;2023-04-01T15:04:00;5.67;;;3.53;;
6755;SDS011;3415;51.148;7.014;2023-04-01T15:06:54;10.47;;;6.00;;
6755;SDS011;3415;51.148;7.014;2023-04-01T15:09:31;5.37;;;3.70;;
6755;SDS011;3415;51.148;7.014;2023-04-01T15:12:09;10.97;;;6.00;;
6755;SDS011;3415;51.148;7.014;2023-04-01T15:14:49;4.13;;;3.10;;
6755;SDS011;3415;51.148;7.014;2023-04-01T15:20:45;11.40;;;5.23;;
6755;SDS011;3415;51.148;7.014;2023-04-01T15:23:28;5.77;;;3.40;;
6755;SDS011;3415;51.148;7.014;2023-04-01T15:26:11;3.57;;;2.07;;
6755;SDS011;3415;51.148;7.014;2023-04-01T15:28:51;7.83;;;4.67;;
6755;SDS011;3415;51.148;7.014;2023-04-01T15:31:29;5.30;;;3.33;;
6755;SDS011;3415;51.148;7.014;2023-04-01T15:34:07;8.33;;;4.00;;
6755;SDS011;3415;51.148;7.014;2023-04-01T15:36:44;7.27;;;4.30;;
6755;SDS011;3415;51.148;7.014;2023-04-01T15:39:18;6.60;;;4.30;;
6755;SDS011;3415;51.148;7.014;2023-04-01T15:42:04;4.60;;;2.50;;
6755;SDS011;3415;51.148;7.014;2023-04-01T15:44:45;7.00;;;4.20;;
6755;SDS011;3415;51.148;7.014;2023-04-01T15:50:21;6.80;;;4.80;;
6755;SDS011;3415;51.148;7.014;2023-04-01T15:53:15;7.27;;;3.97;;
6755;SDS011;3415;51.148;7.014;2023-04-01T15:55:52;6.50;;;3.77;;
6755;SDS011;3415;51.148;7.014;2023-04-01T15:58:36;6.20;;;3.97;;
6755;SDS011;3415;51.148;7.014;2023-04-01T16:01:14;8.20;;;3.90;;
6755;SDS011;3415;51.148;7.014;2023-04-01T16:03:51;5.37;;;3.30;;
6755;SDS011;3415;51.148;7.014;2023-04-01T16:06:24;6.60;;;4.47;;
6755;SDS011;3415;51.148;7.014;2023-04-01T16:09:06;7.10;;;4.50;;
6755;SDS011;3415;51.148;7.014;2023-04-01T16:11:44;5.17;;;3.07;;
6755;SDS011;3415;51.148;7.014;2023-04-01T16:14:25;7.50;;;3.70;;
6755;SDS011;3415;51.148;7.014;2023-04-01T16:17:14;5.23;;;3.40;;
6755;SDS011;3415;51.148;7.014;2023-04-01T16:19:52;5.30;;;3.47;;
6755;SDS011;3415;51.148;7.014;2023-04-01T16:22:23;8.13;;;3.77;;
6755;SDS011;3415;51.148;7.014;2023-04-01T16:24:54;10.23;;;3.43;;
6755;SDS011;3415;51.148;7.014;2023-04-01T16:27:27;7.00;;;3.70;;
6755;SDS011;3415;51.148;7.014;2023-04-01T16:30:03;4.97;;;3.30;;
6755;SDS011;3415;51.148;7.014;2023-04-01T16:32:51;7.57;;;2.97;;
6755;SDS011;3415;51.148;7.014;2023-04-01T16:35:25;6.30;;;3.67;;
6755;SDS011;3415;51.148;7.014;2023-04-01T16:38:03;5.10;;;3.00;;
6755;SDS011;3415;51.148;7.014;2023-04-01T16:40:37;5.50;;;2.77;;
6755;SDS011;3415;51.148;7.014;2023-04-01T16:43:11;6.67;;;3.43;;
6755;SDS011;3415;51.148;7.014;2023-04-01T16:45:51;7.87;;;3.87;;
6755;SDS011;3415;51.148;7.014;2023-04-01T16:48:25;8.07;;;3.60;;
6755;SDS011;3415;51.148;7.014;2023-04-01T16:51:02;6.77;;;3.10;;
6755;SDS011;3415;51.148;7.014;2023-04-01T16:53:40;6.43;;;3.60;;
6755;SDS011;3415;51.148;7.014;2023-04-01T16:56:11;7.57;;;4.10;;
6755;SDS011;3415;51.148;7.014;2023-04-01T16:58:41;7.57;;;4.33;;
6755;SDS011;3415;51.148;7.014;2023-04-01T17:01:18;10.47;;;4.17;;
6755;SDS011;3415;51.148;7.014;2023-04-01T17:03:50;9.30;;;4.97;;
6755;SDS011;3415;51.148;7.014;2023-04-01T17:06:26;5.53;;;3.37;;
6755;SDS011;3415;51.148;7.014;2023-04-01T17:09:02;5.40;;;2.90;;
6755;SDS011;3415;51.148;7.014;2023-04-01T17:11:44;5.10;;;3.40;;
6755;SDS011;3415;51.148;7.014;2023-04-01T17:14:20;6.83;;;4.03;;
6755;SDS011;3415;51.148;7.014;2023-04-01T17:16:58;7.03;;;4.20;;
6755;SDS011;3415;51.148;7.014;2023-04-01T17:19:37;11.60;;;6.20;;
6755;SDS011;3415;51.148;7.014;2023-04-01T17:22:19;5.90;;;3.40;;
6755;SDS011;3415;51.148;7.014;2023-04-01T17:24:58;5.10;;;3.30;;
6755;SDS011;3415;51.148;7.014;2023-04-01T17:27:36;6.63;;;3.63;;
6755;SDS011;3415;51.148;7.014;2023-04-01T17:30:18;5.47;;;3.70;;
6755;SDS011;3415;51.148;7.014;2023-04-01T17:33:13;5.40;;;3.30;;